Overview Statistics Trail Chart Weather Telemetry Raw packets
 

This is the latest recevied weather packets stored in our database for station/object LRTR. If no packets are shown the sender has not sent any weather packets the latest 10 day(s).

<< 26 27 28 29 30 31 32 >>
Time Temp. Humidity Pressure Rain* Wind** Luminosity Snow
1777109629 18.89° C 43% 1015 hPa - - - -
1777108685 17.78° C 46% 1015 hPa - - - -
1777107785 17.78° C 46% 1015 hPa - - - -
1777106885 17.22° C 49% 1015 hPa - - - -
1777105985 17.22° C 49% 1015 hPa - - - -
1777105085 16.11° C 55% 1015 hPa - - - -
1777104185 16.11° C 55% 1015 hPa - - - -
1777103285 15° C 59% 1015 hPa - - - -
1777102385 15° C 59% 1015 hPa - - - -
1777101500 12.78° C 63% 1015 hPa - - - -
1777100585 12.78° C 63% 1015 hPa - - - -
1777099685 11.11° C 72% 1015 hPa - - - -
1777098785 11.11° C 72% 1015 hPa - - - -
1777097885 8.89° C 82% 1015 hPa - - - -
1777096985 8.89° C 82% 1015 hPa - - - -
1777096085 7.78° C 82% 1015 hPa - - - -
1777095185 7.78° C 82% 1015 hPa - - - -
1777094284 6.11° C 93% 1015 hPa - - - -
1777093386 6.11° C 93% 1015 hPa - - - -
1777092559 3.89° C 93% 1015 hPa - - - -
1777091585 3.89° C 93% 1015 hPa - - - -
1777090685 2.78° C 93% 1014 hPa - - - -
1777089785 2.78° C 93% 1014 hPa - - - -
1777088889 2.78° C 93% 1014 hPa - - - -
1777087985 2.78° C 93% 1014 hPa - - - -

* Rain since midnight (hover to see other rain measurements)
** Current wind speed in m/s (hover to see current wind gust speed)